Adelaide, Washington
Current Conditions -  °F | °C
As of 1:53 AM on Thursday 27 Nov 2014 (Local Time) from KBFI Reporting Station
Overcast Overcast  
Wind Chill: 61°   Ceiling: 4000
Heat Index: 61°   Visibility: 10mi
Dew Point: 43°   Wind: 18mph
Humidity: 52%   Direction: 180°S
Pressure: 29.87"   Gusts: 28mph
Location:  47.6833°N, 122.123°W
Report Text: KBFI 270953Z 18016G24KT 10SM OVC040 16/06 A2987 RMK AO2 SLP113 T01610061
Loading
Personal Weather Stations






























Interactive Weather Map New forecast layout! Learn more

10-Day Weather Forecast

Advertisements
Track Severe Weather on mobile